Terminal Aerodrome Forecast
Issued by NWS

Home | Current Version | Previous Version | Text Only | Print | Product List | Glossary On
Versions: 1 2 3 4 5 6 7 8 9 10 11 12 13 14 15 16 17 18 19 20 21 22
000
FTUS44 KLZK 270211 AAA
TAFBPK
TAF AMD
KBPK 270211Z 2702/2724 VRB05KT P6SM OVC010
     FM270300 30012KT 5SM BR BKN005 OVC010
      TEMPO 2709/2713 2SM BR
     FM271500 30006KT P6SM SCT050
     FM271800 22005KT P6SM BKN250=

USA.gov is the U.S. government's official web portal to all federal, state and local government web resources and services.